sensor_id;sensor_type;location;lat;lon;timestamp;pressure;altitude;pressure_sealevel;temperature;humidity
9525;BME280;15940;48.734;9.112;2023-04-26T00:01:59;96600.28;;;6.23;82.69
9525;BME280;15940;48.734;9.112;2023-04-26T00:04:26;96593.78;;;6.39;84.26
9525;BME280;15940;48.734;9.112;2023-04-26T00:06:54;96600.03;;;6.45;83.52
9525;BME280;15940;48.734;9.112;2023-04-26T00:09:21;96599.22;;;6.30;80.73
9525;BME280;15940;48.734;9.112;2023-04-26T00:11:48;96590.88;;;6.28;82.81
9525;BME280;15940;48.734;9.112;2023-04-26T00:14:15;96595.34;;;6.31;82.89
9525;BME280;15940;48.734;9.112;2023-04-26T00:16:42;96587.03;;;6.20;81.60
9525;BME280;15940;48.734;9.112;2023-04-26T00:19:11;96592.81;;;6.27;82.62
9525;BME280;15940;48.734;9.112;2023-04-26T00:21:38;96597.91;;;6.25;82.92
9525;BME280;15940;48.734;9.112;2023-04-26T00:24:06;96591.44;;;6.32;83.12
9525;BME280;15940;48.734;9.112;2023-04-26T00:26:33;96588.22;;;6.19;80.58
9525;BME280;15940;48.734;9.112;2023-04-26T00:29:00;96585.69;;;6.15;82.12
9525;BME280;15940;48.734;9.112;2023-04-26T00:31:27;96589.94;;;6.31;83.02
9525;BME280;15940;48.734;9.112;2023-04-26T00:33:54;96593.56;;;6.28;82.21
9525;BME280;15940;48.734;9.112;2023-04-26T00:36:22;96594.53;;;6.40;82.12
9525;BME280;15940;48.734;9.112;2023-04-26T00:38:49;96589.34;;;6.36;81.81
9525;BME280;15940;48.734;9.112;2023-04-26T00:41:16;96591.03;;;6.24;81.81
9525;BME280;15940;48.734;9.112;2023-04-26T00:43:44;96590.31;;;6.15;80.36
9525;BME280;15940;48.734;9.112;2023-04-26T00:46:11;96597.69;;;6.05;81.28
9525;BME280;15940;48.734;9.112;2023-04-26T00:48:38;96598.81;;;6.22;81.87
9525;BME280;15940;48.734;9.112;2023-04-26T00:51:05;96596.34;;;6.10;80.87
9525;BME280;15940;48.734;9.112;2023-04-26T00:53:34;96596.78;;;6.08;81.09
9525;BME280;15940;48.734;9.112;2023-04-26T00:56:01;96592.03;;;6.03;82.27
9525;BME280;15940;48.734;9.112;2023-04-26T00:58:28;96598.09;;;6.13;81.94
9525;BME280;15940;48.734;9.112;2023-04-26T01:00:55;96596.75;;;6.17;81.43
9525;BME280;15940;48.734;9.112;2023-04-26T01:03:22;96593.72;;;6.24;82.20
9525;BME280;15940;48.734;9.112;2023-04-26T01:05:51;96599.84;;;6.25;80.63
9525;BME280;15940;48.734;9.112;2023-04-26T01:08:19;96601.97;;;6.21;80.27
9525;BME280;15940;48.734;9.112;2023-04-26T01:10:48;96606.28;;;6.27;80.54
9525;BME280;15940;48.734;9.112;2023-04-26T01:13:15;96599.25;;;6.21;81.86
9525;BME280;15940;48.734;9.112;2023-04-26T01:15:46;96602.88;;;6.18;80.78
9525;BME280;15940;48.734;9.112;2023-04-26T01:18:13;96606.31;;;6.18;80.86
9525;BME280;15940;48.734;9.112;2023-04-26T01:20:41;96595.09;;;6.20;80.21
9525;BME280;15940;48.734;9.112;2023-04-26T01:23:09;96591.66;;;6.19;80.88
9525;BME280;15940;48.734;9.112;2023-04-26T01:25:37;96587.06;;;6.11;79.71
9525;BME280;15940;48.734;9.112;2023-04-26T01:28:04;96587.34;;;6.13;80.62
9525;BME280;15940;48.734;9.112;2023-04-26T01:30:31;96587.97;;;6.08;80.36
9525;BME280;15940;48.734;9.112;2023-04-26T01:32:58;96592.25;;;6.14;80.16
9525;BME280;15940;48.734;9.112;2023-04-26T01:35:25;96597.53;;;6.09;79.01
9525;BME280;15940;48.734;9.112;2023-04-26T01:37:52;96594.09;;;6.08;79.73
9525;BME280;15940;48.734;9.112;2023-04-26T01:40:20;96594.75;;;5.94;79.90
9525;BME280;15940;48.734;9.112;2023-04-26T01:42:47;96592.34;;;5.87;78.48
9525;BME280;15940;48.734;9.112;2023-04-26T01:45:14;96600.00;;;5.79;79.97
9525;BME280;15940;48.734;9.112;2023-04-26T01:47:42;96597.03;;;5.68;80.10
9525;BME280;15940;48.734;9.112;2023-04-26T01:50:10;96595.88;;;5.60;79.68
9525;BME280;15940;48.734;9.112;2023-04-26T01:52:37;96600.81;;;5.61;80.45
9525;BME280;15940;48.734;9.112;2023-04-26T01:55:05;96591.09;;;5.55;80.88
9525;BME280;15940;48.734;9.112;2023-04-26T01:57:34;96596.91;;;5.62;80.69
9525;BME280;15940;48.734;9.112;2023-04-26T02:00:01;96583.03;;;5.64;80.92
9525;BME280;15940;48.734;9.112;2023-04-26T02:02:29;96588.13;;;5.62;80.49
9525;BME280;15940;48.734;9.112;2023-04-26T02:04:56;96580.91;;;5.68;81.18
9525;BME280;15940;48.734;9.112;2023-04-26T02:07:23;96583.78;;;5.64;78.90
9525;BME280;15940;48.734;9.112;2023-04-26T02:09:50;96581.13;;;5.46;80.18
9525;BME280;15940;48.734;9.112;2023-04-26T02:12:16;96585.47;;;5.43;80.45
9525;BME280;15940;48.734;9.112;2023-04-26T02:14:45;96580.69;;;5.38;81.41
9525;BME280;15940;48.734;9.112;2023-04-26T02:17:12;96583.97;;;5.42;81.63
9525;BME280;15940;48.734;9.112;2023-04-26T02:19:39;96578.31;;;5.40;81.58
9525;BME280;15940;48.734;9.112;2023-04-26T02:22:06;96572.66;;;5.29;81.32
9525;BME280;15940;48.734;9.112;2023-04-26T02:24:33;96576.69;;;5.25;81.71
9525;BME280;15940;48.734;9.112;2023-04-26T02:27:00;96578.75;;;5.30;81.67
9525;BME280;15940;48.734;9.112;2023-04-26T02:29:28;96572.25;;;5.22;80.71
9525;BME280;15940;48.734;9.112;2023-04-26T02:31:57;96586.41;;;5.22;82.17
9525;BME280;15940;48.734;9.112;2023-04-26T02:34:24;96586.53;;;5.28;81.35
9525;BME280;15940;48.734;9.112;2023-04-26T02:36:50;96588.63;;;5.24;82.40
9525;BME280;15940;48.734;9.112;2023-04-26T02:39:17;96594.13;;;5.20;82.24
9525;BME280;15940;48.734;9.112;2023-04-26T02:41:45;96594.00;;;5.24;82.57
9525;BME280;15940;48.734;9.112;2023-04-26T02:44:12;96593.72;;;5.31;82.23
9525;BME280;15940;48.734;9.112;2023-04-26T02:46:39;96587.88;;;5.32;82.13
9525;BME280;15940;48.734;9.112;2023-04-26T02:49:07;96588.91;;;5.35;81.16
9525;BME280;15940;48.734;9.112;2023-04-26T02:51:34;96589.66;;;5.35;81.99
9525;BME280;15940;48.734;9.112;2023-04-26T02:54:01;96592.47;;;5.50;81.50
9525;BME280;15940;48.734;9.112;2023-04-26T02:56:28;96584.41;;;5.59;81.59
9525;BME280;15940;48.734;9.112;2023-04-26T02:58:56;96586.91;;;5.63;81.33
9525;BME280;15940;48.734;9.112;2023-04-26T03:01:22;96592.41;;;5.68;81.70
9525;BME280;15940;48.734;9.112;2023-04-26T03:03:49;96587.81;;;5.69;81.42
9525;BME280;15940;48.734;9.112;2023-04-26T03:06:18;96587.19;;;5.65;82.03
9525;BME280;15940;48.734;9.112;2023-04-26T03:08:45;96591.84;;;5.64;80.78
9525;BME280;15940;48.734;9.112;2023-04-26T03:11:12;96596.91;;;5.71;82.48
9525;BME280;15940;48.734;9.112;2023-04-26T03:13:39;96597.78;;;5.68;81.76
9525;BME280;15940;48.734;9.112;2023-04-26T03:16:06;96599.72;;;5.68;82.16
9525;BME280;15940;48.734;9.112;2023-04-26T03:18:33;96597.78;;;5.68;81.65
9525;BME280;15940;48.734;9.112;2023-04-26T03:21:00;96603.31;;;5.65;81.41
9525;BME280;15940;48.734;9.112;2023-04-26T03:23:29;96601.38;;;5.65;82.49
9525;BME280;15940;48.734;9.112;2023-04-26T03:25:56;96607.19;;;5.73;82.73
9525;BME280;15940;48.734;9.112;2023-04-26T03:28:23;96604.03;;;5.74;81.39
9525;BME280;15940;48.734;9.112;2023-04-26T03:30:50;96606.44;;;5.72;82.11
9525;BME280;15940;48.734;9.112;2023-04-26T03:33:17;96606.75;;;5.65;81.53
9525;BME280;15940;48.734;9.112;2023-04-26T03:35:44;96597.25;;;5.46;81.84
9525;BME280;15940;48.734;9.112;2023-04-26T03:38:11;96590.84;;;5.34;83.53
9525;BME280;15940;48.734;9.112;2023-04-26T03:40:39;96597.72;;;5.26;81.84
9525;BME280;15940;48.734;9.112;2023-04-26T03:43:06;96595.78;;;5.18;81.99
9525;BME280;15940;48.734;9.112;2023-04-26T03:45:33;96593.84;;;5.00;83.91
9525;BME280;15940;48.734;9.112;2023-04-26T03:48:00;96587.16;;;4.95;83.63
9525;BME280;15940;48.734;9.112;2023-04-26T03:50:27;96582.25;;;4.94;84.38
9525;BME280;15940;48.734;9.112;2023-04-26T03:52:53;96581.50;;;4.93;83.56
9525;BME280;15940;48.734;9.112;2023-04-26T03:55:21;96586.09;;;4.65;84.62
9525;BME280;15940;48.734;9.112;2023-04-26T03:57:49;96585.19;;;4.50;84.35
9525;BME280;15940;48.734;9.112;2023-04-26T04:00:18;96591.97;;;4.23;83.49
9525;BME280;15940;48.734;9.112;2023-04-26T04:02:46;96598.97;;;4.21;86.87
9525;BME280;15940;48.734;9.112;2023-04-26T04:05:12;96607.19;;;4.36;87.38
9525;BME280;15940;48.734;9.112;2023-04-26T04:07:39;96594.88;;;4.47;86.79
9525;BME280;15940;48.734;9.112;2023-04-26T04:10:08;96594.41;;;4.49;86.62
9525;BME280;15940;48.734;9.112;2023-04-26T04:12:36;96584.00;;;4.60;86.42
9525;BME280;15940;48.734;9.112;2023-04-26T04:15:05;96593.84;;;4.63;86.31
9525;BME280;15940;48.734;9.112;2023-04-26T04:17:32;96595.50;;;4.70;85.80
9525;BME280;15940;48.734;9.112;2023-04-26T04:20:01;96587.59;;;4.75;86.08
9525;BME280;15940;48.734;9.112;2023-04-26T04:22:29;96588.19;;;4.70;84.87
9525;BME280;15940;48.734;9.112;2023-04-26T04:24:56;96588.19;;;4.70;85.33
9525;BME280;15940;48.734;9.112;2023-04-26T04:27:24;96594.91;;;4.75;85.38
9525;BME280;15940;48.734;9.112;2023-04-26T04:29:51;96586.13;;;4.74;85.22
9525;BME280;15940;48.734;9.112;2023-04-26T04:32:21;96591.31;;;4.78;85.30
9525;BME280;15940;48.734;9.112;2023-04-26T04:34:48;96598.63;;;4.86;85.16
9525;BME280;15940;48.734;9.112;2023-04-26T04:37:15;96592.25;;;4.93;85.36
9525;BME280;15940;48.734;9.112;2023-04-26T04:39:43;96602.53;;;5.04;84.68
9525;BME280;15940;48.734;9.112;2023-04-26T04:42:10;96601.63;;;5.07;84.29
9525;BME280;15940;48.734;9.112;2023-04-26T04:44:37;96601.31;;;5.05;83.83
9525;BME280;15940;48.734;9.112;2023-04-26T04:47:04;96597.75;;;5.08;84.27
9525;BME280;15940;48.734;9.112;2023-04-26T04:49:32;96598.03;;;5.10;84.14
9525;BME280;15940;48.734;9.112;2023-04-26T04:52:01;96604.16;;;5.10;83.64
9525;BME280;15940;48.734;9.112;2023-04-26T04:54:28;96599.09;;;5.03;84.52
9525;BME280;15940;48.734;9.112;2023-04-26T04:56:55;96611.03;;;5.02;83.92
9525;BME280;15940;48.734;9.112;2023-04-26T04:59:22;96606.41;;;5.03;83.76
9525;BME280;15940;48.734;9.112;2023-04-26T05:01:49;96616.06;;;5.00;84.90
9525;BME280;15940;48.734;9.112;2023-04-26T05:04:16;96614.13;;;5.19;85.24
9525;BME280;15940;48.734;9.112;2023-04-26T05:06:45;96617.56;;;5.29;84.48
9525;BME280;15940;48.734;9.112;2023-04-26T05:09:12;96620.22;;;5.47;83.75
9525;BME280;15940;48.734;9.112;2023-04-26T05:11:39;96612.78;;;5.51;83.12
9525;BME280;15940;48.734;9.112;2023-04-26T05:14:06;96621.38;;;5.64;83.44
9525;BME280;15940;48.734;9.112;2023-04-26T05:16:32;96626.91;;;5.70;83.22
9525;BME280;15940;48.734;9.112;2023-04-26T05:19:00;96629.56;;;5.79;82.54
9525;BME280;15940;48.734;9.112;2023-04-26T05:21:28;96632.66;;;5.87;82.17
9525;BME280;15940;48.734;9.112;2023-04-26T05:23:57;96625.81;;;5.95;82.38
9525;BME280;15940;48.734;9.112;2023-04-26T05:26:24;96637.31;;;5.95;81.78
9525;BME280;15940;48.734;9.112;2023-04-26T05:28:51;96635.66;;;5.98;81.71
9525;BME280;15940;48.734;9.112;2023-04-26T05:31:18;96643.28;;;5.99;82.13
9525;BME280;15940;48.734;9.112;2023-04-26T05:33:46;96644.13;;;6.06;81.27
9525;BME280;15940;48.734;9.112;2023-04-26T05:36:13;96645.34;;;6.05;80.89
9525;BME280;15940;48.734;9.112;2023-04-26T05:38:41;96639.72;;;5.93;80.08
9525;BME280;15940;48.734;9.112;2023-04-26T05:41:09;96654.81;;;5.91;80.90
9525;BME280;15940;48.734;9.112;2023-04-26T05:43:36;96655.91;;;6.17;80.51
9525;BME280;15940;48.734;9.112;2023-04-26T05:46:03;96647.16;;;5.98;77.90
9525;BME280;15940;48.734;9.112;2023-04-26T05:48:31;96653.56;;;6.01;78.87
9525;BME280;15940;48.734;9.112;2023-04-26T05:50:58;96648.97;;;5.92;77.95
9525;BME280;15940;48.734;9.112;2023-04-26T05:53:26;96653.03;;;5.79;76.94
9525;BME280;15940;48.734;9.112;2023-04-26T05:55:53;96656.75;;;5.72;77.40
9525;BME280;15940;48.734;9.112;2023-04-26T05:58:23;96652.59;;;5.71;78.36
9525;BME280;15940;48.734;9.112;2023-04-26T06:00:50;96655.69;;;5.88;78.13
9525;BME280;15940;48.734;9.112;2023-04-26T06:03:17;96652.69;;;5.86;78.61
9525;BME280;15940;48.734;9.112;2023-04-26T06:05:44;96655.38;;;5.95;78.23
9525;BME280;15940;48.734;9.112;2023-04-26T06:08:11;96654.91;;;5.96;78.25
9525;BME280;15940;48.734;9.112;2023-04-26T06:10:38;96657.00;;;6.01;78.48
9525;BME280;15940;48.734;9.112;2023-04-26T06:13:05;96654.59;;;6.04;76.71
9525;BME280;15940;48.734;9.112;2023-04-26T06:15:33;96670.25;;;6.14;77.51
9525;BME280;15940;48.734;9.112;2023-04-26T06:18:00;96662.50;;;6.16;77.10
9525;BME280;15940;48.734;9.112;2023-04-26T06:20:27;96674.59;;;6.12;74.53
9525;BME280;15940;48.734;9.112;2023-04-26T06:22:54;96668.16;;;6.18;75.70
9525;BME280;15940;48.734;9.112;2023-04-26T06:25:21;96677.38;;;6.36;75.47
9525;BME280;15940;48.734;9.112;2023-04-26T06:27:48;96672.88;;;6.66;73.41
9525;BME280;15940;48.734;9.112;2023-04-26T06:30:16;96672.81;;;6.99;73.88
9525;BME280;15940;48.734;9.112;2023-04-26T06:32:44;96672.16;;;7.13;71.59
9525;BME280;15940;48.734;9.112;2023-04-26T06:35:11;96679.94;;;7.11;70.61
9525;BME280;15940;48.734;9.112;2023-04-26T06:37:38;96688.47;;;7.09;70.00
9525;BME280;15940;48.734;9.112;2023-04-26T06:40:06;96683.50;;;6.93;66.71
9525;BME280;15940;48.734;9.112;2023-04-26T06:42:36;96681.19;;;7.01;67.45
9525;BME280;15940;48.734;9.112;2023-04-26T06:45:04;96674.69;;;6.93;66.07
9525;BME280;15940;48.734;9.112;2023-04-26T06:47:31;96677.38;;;6.93;66.34
9525;BME280;15940;48.734;9.112;2023-04-26T06:50:00;96672.66;;;7.02;70.39
9525;BME280;15940;48.734;9.112;2023-04-26T06:52:27;96678.44;;;7.10;67.75
9525;BME280;15940;48.734;9.112;2023-04-26T06:54:55;96678.63;;;7.06;67.11
9525;BME280;15940;48.734;9.112;2023-04-26T06:57:22;96674.63;;;7.02;66.33
9525;BME280;15940;48.734;9.112;2023-04-26T06:59:49;96679.00;;;7.14;65.65
9525;BME280;15940;48.734;9.112;2023-04-26T07:02:16;96676.41;;;7.20;65.17
9525;BME280;15940;48.734;9.112;2023-04-26T07:04:43;96663.72;;;7.35;65.61
9525;BME280;15940;48.734;9.112;2023-04-26T07:07:11;96665.34;;;7.86;66.93
9525;BME280;15940;48.734;9.112;2023-04-26T07:09:39;96663.22;;;8.69;65.68
9525;BME280;15940;48.734;9.112;2023-04-26T07:12:06;96659.66;;;8.78;64.38
9525;BME280;15940;48.734;9.112;2023-04-26T07:14:33;96664.47;;;9.29;63.27
9525;BME280;15940;48.734;9.112;2023-04-26T07:17:00;96661.06;;;9.14;57.62
9525;BME280;15940;48.734;9.112;2023-04-26T07:19:27;96655.59;;;9.29;60.09
9525;BME280;15940;48.734;9.112;2023-04-26T07:21:54;96655.13;;;9.56;60.88
9525;BME280;15940;48.734;9.112;2023-04-26T07:24:22;96651.94;;;10.10;57.72
9525;BME280;15940;48.734;9.112;2023-04-26T07:26:49;96655.97;;;10.57;58.11
9525;BME280;15940;48.734;9.112;2023-04-26T07:29:17;96649.50;;;10.92;55.33
9525;BME280;15940;48.734;9.112;2023-04-26T07:31:44;96654.94;;;10.92;55.57
9525;BME280;15940;48.734;9.112;2023-04-26T07:34:11;96656.56;;;10.78;55.47
9525;BME280;15940;48.734;9.112;2023-04-26T07:36:38;96651.50;;;10.97;56.58
9525;BME280;15940;48.734;9.112;2023-04-26T07:39:05;96653.56;;;10.65;52.88
9525;BME280;15940;48.734;9.112;2023-04-26T07:41:35;96644.00;;;10.32;51.10
9525;BME280;15940;48.734;9.112;2023-04-26T07:44:02;96647.25;;;9.79;53.38
9525;BME280;15940;48.734;9.112;2023-04-26T07:46:29;96654.53;;;9.47;55.14
9525;BME280;15940;48.734;9.112;2023-04-26T07:48:58;96656.28;;;9.03;57.60
9525;BME280;15940;48.734;9.112;2023-04-26T07:51:25;96650.31;;;8.58;60.08
9525;BME280;15940;48.734;9.112;2023-04-26T07:53:52;96647.09;;;8.40;62.33
9525;BME280;15940;48.734;9.112;2023-04-26T07:56:21;96641.78;;;8.30;63.03
9525;BME280;15940;48.734;9.112;2023-04-26T07:58:50;96655.31;;;8.16;62.32
9525;BME280;15940;48.734;9.112;2023-04-26T08:01:17;96656.41;;;8.24;64.29
9525;BME280;15940;48.734;9.112;2023-04-26T08:03:44;96656.88;;;8.22;63.95
9525;BME280;15940;48.734;9.112;2023-04-26T08:06:12;96655.22;;;8.60;63.30
9525;BME280;15940;48.734;9.112;2023-04-26T08:08:38;96661.59;;;9.18;61.38
9525;BME280;15940;48.734;9.112;2023-04-26T08:11:09;96649.81;;;9.93;60.80
9525;BME280;15940;48.734;9.112;2023-04-26T08:13:36;96656.56;;;10.72;58.48
9525;BME280;15940;48.734;9.112;2023-04-26T08:16:05;96651.31;;;11.11;55.34
9525;BME280;15940;48.734;9.112;2023-04-26T08:18:32;96661.03;;;11.40;53.61
9525;BME280;15940;48.734;9.112;2023-04-26T08:20:59;96651.88;;;11.32;55.06
9525;BME280;15940;48.734;9.112;2023-04-26T08:23:26;96653.19;;;11.59;52.46
9525;BME280;15940;48.734;9.112;2023-04-26T08:25:54;96654.50;;;11.97;56.01
9525;BME280;15940;48.734;9.112;2023-04-26T08:28:21;96655.94;;;12.54;53.66
9525;BME280;15940;48.734;9.112;2023-04-26T08:30:48;96649.78;;;12.43;50.13
9525;BME280;15940;48.734;9.112;2023-04-26T08:33:17;96660.69;;;12.15;49.18
9525;BME280;15940;48.734;9.112;2023-04-26T08:35:44;96650.53;;;12.32;48.33
9525;BME280;15940;48.734;9.112;2023-04-26T08:38:11;96651.03;;;12.30;51.27
9525;BME280;15940;48.734;9.112;2023-04-26T08:40:39;96656.19;;;11.78;50.43
9525;BME280;15940;48.734;9.112;2023-04-26T08:43:08;96657.94;;;10.99;50.75
9525;BME280;15940;48.734;9.112;2023-04-26T08:45:38;96658.53;;;10.77;52.72
9525;BME280;15940;48.734;9.112;2023-04-26T08:48:10;96662.56;;;10.19;51.94
9525;BME280;15940;48.734;9.112;2023-04-26T08:50:42;96668.19;;;9.84;54.72
9525;BME280;15940;48.734;9.112;2023-04-26T08:53:14;96668.88;;;9.53;58.29
9525;BME280;15940;48.734;9.112;2023-04-26T08:55:46;96663.91;;;9.25;58.67
9525;BME280;15940;48.734;9.112;2023-04-26T08:58:14;96660.59;;;9.15;57.96
9525;BME280;15940;48.734;9.112;2023-04-26T09:00:43;96669.09;;;9.08;59.57
9525;BME280;15940;48.734;9.112;2023-04-26T09:03:10;96666.75;;;8.96;55.73
9525;BME280;15940;48.734;9.112;2023-04-26T09:05:40;96668.66;;;9.10;57.45
9525;BME280;15940;48.734;9.112;2023-04-26T09:08:13;96668.81;;;9.27;58.01
9525;BME280;15940;48.734;9.112;2023-04-26T09:10:42;96670.56;;;9.50;58.63
9525;BME280;15940;48.734;9.112;2023-04-26T09:13:09;96671.06;;;9.49;57.23
9525;BME280;15940;48.734;9.112;2023-04-26T09:15:36;96664.47;;;9.29;59.34
9525;BME280;15940;48.734;9.112;2023-04-26T09:18:17;96667.41;;;9.31;59.15
9525;BME280;15940;48.734;9.112;2023-04-26T09:20:45;96668.66;;;9.10;58.85
9525;BME280;15940;48.734;9.112;2023-04-26T09:23:26;96662.97;;;8.87;58.47
9525;BME280;15940;48.734;9.112;2023-04-26T09:25:53;96667.00;;;8.77;57.95
9525;BME280;15940;48.734;9.112;2023-04-26T09:28:22;96662.78;;;8.91;59.70
9525;BME280;15940;48.734;9.112;2023-04-26T09:30:50;96655.75;;;9.20;59.77
9525;BME280;15940;48.734;9.112;2023-04-26T09:33:17;96661.19;;;9.25;57.30
9525;BME280;15940;48.734;9.112;2023-04-26T09:35:46;96652.94;;;9.34;57.24
9525;BME280;15940;48.734;9.112;2023-04-26T09:38:15;96656.50;;;9.46;58.71
9525;BME280;15940;48.734;9.112;2023-04-26T09:40:44;96650.84;;;9.70;58.75
9525;BME280;15940;48.734;9.112;2023-04-26T09:43:13;96650.38;;;9.71;57.38
9525;BME280;15940;48.734;9.112;2023-04-26T09:45:46;96639.97;;;9.64;57.57
9525;BME280;15940;48.734;9.112;2023-04-26T09:48:17;96644.97;;;9.71;58.63
9525;BME280;15940;48.734;9.112;2023-04-26T09:50:50;96647.81;;;9.62;58.44
9525;BME280;15940;48.734;9.112;2023-04-26T09:53:30;96651.94;;;9.84;58.01
9525;BME280;15940;48.734;9.112;2023-04-26T09:56:07;96648.31;;;10.18;55.46
9525;BME280;15940;48.734;9.112;2023-04-26T09:58:36;96650.97;;;10.44;55.07
9525;BME280;15940;48.734;9.112;2023-04-26T10:01:04;96648.66;;;11.23;54.55
9525;BME280;15940;48.734;9.112;2023-04-26T10:03:34;96651.78;;;11.86;53.69
9525;BME280;15940;48.734;9.112;2023-04-26T10:06:04;96652.03;;;12.11;51.90
9525;BME280;15940;48.734;9.112;2023-04-26T10:08:32;96647.06;;;12.37;52.27
9525;BME280;15940;48.734;9.112;2023-04-26T10:10:59;96639.41;;;12.36;50.51
9525;BME280;15940;48.734;9.112;2023-04-26T10:13:27;96624.59;;;12.37;51.59
9525;BME280;15940;48.734;9.112;2023-04-26T10:15:54;96630.53;;;12.29;50.46
9525;BME280;15940;48.734;9.112;2023-04-26T10:18:22;96639.19;;;12.11;50.80
9525;BME280;15940;48.734;9.112;2023-04-26T10:20:52;96637.47;;;12.08;49.82
9525;BME280;15940;48.734;9.112;2023-04-26T10:23:25;96640.44;;;12.16;50.63
9525;BME280;15940;48.734;9.112;2023-04-26T10:25:53;96635.22;;;11.84;49.95
9525;BME280;15940;48.734;9.112;2023-04-26T10:28:53;96633.00;;;11.77;50.78
9525;BME280;15940;48.734;9.112;2023-04-26T10:31:21;96633.00;;;11.83;50.67
9525;BME280;15940;48.734;9.112;2023-04-26T10:34:19;96631.72;;;11.72;50.78
9525;BME280;15940;48.734;9.112;2023-04-26T10:37:11;96635.41;;;11.47;47.78
9525;BME280;15940;48.734;9.112;2023-04-26T10:39:41;96634.91;;;11.37;52.24
9525;BME280;15940;48.734;9.112;2023-04-26T10:42:23;96628.16;;;11.10;50.65
9525;BME280;15940;48.734;9.112;2023-04-26T10:44:52;96627.25;;;11.41;50.19
9525;BME280;15940;48.734;9.112;2023-04-26T10:47:29;96632.19;;;11.54;47.78
9525;BME280;15940;48.734;9.112;2023-04-26T10:50:14;96632.78;;;11.97;52.36
9525;BME280;15940;48.734;9.112;2023-04-26T10:53:05;96621.59;;;12.57;48.44
9525;BME280;15940;48.734;9.112;2023-04-26T10:55:39;96625.38;;;13.06;48.89
9525;BME280;15940;48.734;9.112;2023-04-26T10:58:27;96611.81;;;13.53;50.70
9525;BME280;15940;48.734;9.112;2023-04-26T11:01:04;96623.88;;;13.99;47.41
9525;BME280;15940;48.734;9.112;2023-04-26T11:03:32;96621.00;;;13.86;43.30
9525;BME280;15940;48.734;9.112;2023-04-26T11:05:59;96609.56;;;13.57;45.65
9525;BME280;15940;48.734;9.112;2023-04-26T11:08:28;96612.94;;;13.33;46.43
9525;BME280;15940;48.734;9.112;2023-04-26T11:11:10;96609.56;;;13.05;47.46
9525;BME280;15940;48.734;9.112;2023-04-26T11:13:39;96606.53;;;12.56;46.01
9525;BME280;15940;48.734;9.112;2023-04-26T11:16:08;96612.28;;;12.24;45.80
9525;BME280;15940;48.734;9.112;2023-04-26T11:18:38;96607.59;;;11.97;47.27
9525;BME280;15940;48.734;9.112;2023-04-26T11:21:07;96611.00;;;11.53;45.82
9525;BME280;15940;48.734;9.112;2023-04-26T11:23:35;96599.41;;;11.63;49.48
9525;BME280;15940;48.734;9.112;2023-04-26T11:26:03;96598.19;;;11.70;49.48
9525;BME280;15940;48.734;9.112;2023-04-26T11:28:33;96594.50;;;11.73;48.90
9525;BME280;15940;48.734;9.112;2023-04-26T11:31:01;96584.16;;;12.05;48.08
9525;BME280;15940;48.734;9.112;2023-04-26T11:33:29;96572.41;;;12.72;49.10
9525;BME280;15940;48.734;9.112;2023-04-26T11:35:56;96566.13;;;13.40;46.62
9525;BME280;15940;48.734;9.112;2023-04-26T11:38:25;96563.44;;;14.00;44.94
9525;BME280;15940;48.734;9.112;2023-04-26T11:40:54;96565.91;;;14.04;41.47
9525;BME280;15940;48.734;9.112;2023-04-26T11:43:21;96556.00;;;13.77;42.29
9525;BME280;15940;48.734;9.112;2023-04-26T11:45:50;96557.75;;;13.74;43.92
9525;BME280;15940;48.734;9.112;2023-04-26T11:48:17;96566.13;;;13.46;46.00
9525;BME280;15940;48.734;9.112;2023-04-26T11:50:45;96559.25;;;13.34;41.85
9525;BME280;15940;48.734;9.112;2023-04-26T11:53:12;96553.38;;;13.65;48.54
9525;BME280;15940;48.734;9.112;2023-04-26T11:55:39;96542.50;;;13.60;45.77
9525;BME280;15940;48.734;9.112;2023-04-26T11:58:11;96537.03;;;13.65;43.20
9525;BME280;15940;48.734;9.112;2023-04-26T12:00:56;96544.72;;;13.91;42.56
9525;BME280;15940;48.734;9.112;2023-04-26T12:03:27;96537.25;;;14.46;45.00
9525;BME280;15940;48.734;9.112;2023-04-26T12:05:54;96535.97;;;14.53;42.87
9525;BME280;15940;48.734;9.112;2023-04-26T12:08:24;96537.41;;;14.05;43.72
9525;BME280;15940;48.734;9.112;2023-04-26T12:10:52;96533.03;;;13.96;43.90
9525;BME280;15940;48.734;9.112;2023-04-26T12:13:19;96531.31;;;13.69;44.18
9525;BME280;15940;48.734;9.112;2023-04-26T12:15:46;96540.34;;;13.06;44.33
9525;BME280;15940;48.734;9.112;2023-04-26T12:18:17;96539.00;;;13.29;46.50
9525;BME280;15940;48.734;9.112;2023-04-26T12:20:44;96540.72;;;13.68;46.10
9525;BME280;15940;48.734;9.112;2023-04-26T12:23:14;96543.44;;;14.47;44.44
9525;BME280;15940;48.734;9.112;2023-04-26T12:25:52;96540.56;;;15.01;46.39
9525;BME280;15940;48.734;9.112;2023-04-26T12:28:21;96538.59;;;15.53;42.13
9525;BME280;15940;48.734;9.112;2023-04-26T12:30:50;96540.22;;;15.61;40.25
9525;BME280;15940;48.734;9.112;2023-04-26T12:33:19;96536.06;;;15.23;42.59
9525;BME280;15940;48.734;9.112;2023-04-26T12:35:48;96538.56;;;14.83;42.84
9525;BME280;15940;48.734;9.112;2023-04-26T12:38:16;96533.72;;;14.27;40.69
9525;BME280;15940;48.734;9.112;2023-04-26T12:40:44;96539.00;;;13.95;46.43
9525;BME280;15940;48.734;9.112;2023-04-26T12:43:11;96535.06;;;13.90;44.65
9525;BME280;15940;48.734;9.112;2023-04-26T12:45:38;96526.91;;;13.90;47.93
9525;BME280;15940;48.734;9.112;2023-04-26T12:48:05;96531.16;;;14.10;47.67
9525;BME280;15940;48.734;9.112;2023-04-26T12:50:33;96521.84;;;14.00;45.05
9525;BME280;15940;48.734;9.112;2023-04-26T12:53:00;96523.16;;;13.63;45.24
9525;BME280;15940;48.734;9.112;2023-04-26T12:55:27;96514.03;;;13.61;44.56
9525;BME280;15940;48.734;9.112;2023-04-26T12:57:54;96518.13;;;13.73;45.48
9525;BME280;15940;48.734;9.112;2023-04-26T13:00:21;96521.44;;;13.66;46.72
9525;BME280;15940;48.734;9.112;2023-04-26T13:02:48;96521.44;;;13.66;46.55
9525;BME280;15940;48.734;9.112;2023-04-26T13:05:15;96521.38;;;13.71;45.40
9525;BME280;15940;48.734;9.112;2023-04-26T13:07:44;96518.66;;;13.71;48.47
9525;BME280;15940;48.734;9.112;2023-04-26T13:10:11;96518.81;;;13.85;45.42
9525;BME280;15940;48.734;9.112;2023-04-26T13:12:38;96515.88;;;13.47;42.88
9525;BME280;15940;48.734;9.112;2023-04-26T13:15:06;96513.59;;;13.57;46.75
9525;BME280;15940;48.734;9.112;2023-04-26T13:17:36;96523.22;;;13.58;46.63
9525;BME280;15940;48.734;9.112;2023-04-26T13:20:04;96513.72;;;13.40;45.11
9525;BME280;15940;48.734;9.112;2023-04-26T13:22:32;96509.00;;;13.40;46.58
9525;BME280;15940;48.734;9.112;2023-04-26T13:25:00;96509.81;;;13.90;43.33